Time;durP1;ratioP1;P1;durP2;ratioP2;P2;SDS_P1;SDS_P2;PMS_P1;PMS_P2;Temp;Humidity;BMP_temperature;BMP_pressure;BME280_temperature;BME280_humidity;BME280_pressure;Samples;Min_cycle;Max_cycle;Signal;HPM_P1;HPM_P2
2024/01/11 00:02:15;;;;;;;30.00;16.45;;;;;;;;;;6259557;22;20047;-82
2024/01/11 00:04:43;;;;;;;30.52;15.45;;;;;;;;;;6258660;22;20019;-82
2024/01/11 00:07:09;;;;;;;32.05;15.05;;;;;;;;;;6259009;22;20386;-80
2024/01/11 00:09:40;;;;;;;31.55;15.65;;;;;;;;;;6284227;22;20023;-80
2024/01/11 00:12:06;;;;;;;30.98;16.58;;;;;;;;;;6257869;22;20023;-79
2024/01/11 00:14:32;;;;;;;26.25;14.88;;;;;;;;;;6259127;22;20015;-79
2024/01/11 00:16:58;;;;;;;32.80;15.90;;;;;;;;;;6259191;22;20022;-80
2024/01/11 00:19:24;;;;;;;32.15;15.95;;;;;;;;;;6259444;22;20026;-80
2024/01/11 00:21:50;;;;;;;38.13;17.33;;;;;;;;;;6258632;22;20463;-79
2024/01/11 00:24:16;;;;;;;31.13;16.92;;;;;;;;;;6257809;22;20019;-80
2024/01/11 00:26:42;;;;;;;35.05;17.92;;;;;;;;;;6258874;22;20018;-80
2024/01/11 00:29:08;;;;;;;50.97;20.15;;;;;;;;;;6258603;22;20026;-79
2024/01/11 00:31:35;;;;;;;34.10;17.10;;;;;;;;;;6257822;22;20015;-79
2024/01/11 00:34:01;;;;;;;32.28;15.95;;;;;;;;;;6256493;22;20094;-82
2024/01/11 00:36:28;;;;;;;35.15;16.20;;;;;;;;;;6257398;22;20019;-82
2024/01/11 00:38:54;;;;;;;33.42;16.67;;;;;;;;;;6255545;22;20343;-80
2024/01/11 00:41:20;;;;;;;31.55;16.77;;;;;;;;;;6248246;22;20016;-80
2024/01/11 00:43:46;;;;;;;36.97;17.13;;;;;;;;;;6247526;22;20023;-80
2024/01/11 00:46:12;;;;;;;30.45;16.27;;;;;;;;;;6252797;22;20019;-80
2024/01/11 00:48:39;;;;;;;32.75;17.20;;;;;;;;;;6269844;22;20015;-80
2024/01/11 00:51:05;;;;;;;39.15;18.65;;;;;;;;;;6243570;22;20522;-80
2024/01/11 00:53:32;;;;;;;31.00;16.17;;;;;;;;;;6252440;22;20100;-79
2024/01/11 00:55:58;;;;;;;33.55;16.58;;;;;;;;;;6242823;22;20019;-80
2024/01/11 00:58:24;;;;;;;28.70;15.80;;;;;;;;;;6246164;22;20023;-80
2024/01/11 01:00:52;;;;;;;32.33;17.33;;;;;;;;;;6251338;22;20018;-80
2024/01/11 01:03:19;;;;;;;31.20;16.13;;;;;;;;;;6257308;22;20015;-80
2024/01/11 01:05:45;;;;;;;33.20;17.20;;;;;;;;;;6257438;22;20015;-79
2024/01/11 01:08:12;;;;;;;30.70;16.08;;;;;;;;;;6256597;22;20026;-82
2024/01/11 01:10:38;;;;;;;34.30;17.98;;;;;;;;;;6259230;22;20023;-82
2024/01/11 01:13:04;;;;;;;38.40;19.13;;;;;;;;;;6254416;22;20027;-80
2024/01/11 01:15:30;;;;;;;32.22;17.13;;;;;;;;;;6253600;22;20604;-80
2024/01/11 01:17:56;;;;;;;36.50;18.67;;;;;;;;;;6255908;22;20019;-80
2024/01/11 01:20:22;;;;;;;29.92;16.48;;;;;;;;;;6256087;22;20070;-79
2024/01/11 01:22:49;;;;;;;32.17;17.25;;;;;;;;;;6256493;22;20043;-79
2024/01/11 01:25:16;;;;;;;31.88;16.70;;;;;;;;;;6283207;22;20022;-79
2024/01/11 01:27:42;;;;;;;31.88;15.95;;;;;;;;;;6283816;22;20022;-80
2024/01/11 01:30:08;;;;;;;30.80;16.05;;;;;;;;;;6258355;22;20050;-79
2024/01/11 01:32:34;;;;;;;32.13;16.30;;;;;;;;;;6284291;22;20015;-79
2024/01/11 01:35:01;;;;;;;33.42;17.35;;;;;;;;;;6258137;22;20066;-79
2024/01/11 01:37:27;;;;;;;34.03;17.35;;;;;;;;;;6257033;22;20027;-79
2024/01/11 01:39:53;;;;;;;30.83;16.77;;;;;;;;;;6256333;22;20112;-79
2024/01/11 01:42:19;;;;;;;31.10;16.33;;;;;;;;;;6257067;22;20045;-79
2024/01/11 01:44:45;;;;;;;32.30;15.88;;;;;;;;;;6283043;22;20346;-79
2024/01/11 01:47:12;;;;;;;33.60;17.58;;;;;;;;;;6256832;22;20019;-79
2024/01/11 01:49:38;;;;;;;35.63;18.38;;;;;;;;;;6256364;22;20069;-79
2024/01/11 01:52:05;;;;;;;33.50;17.25;;;;;;;;;;6284576;22;20088;-80
2024/01/11 01:54:32;;;;;;;32.80;16.80;;;;;;;;;;6258151;22;20015;-79
2024/01/11 01:56:58;;;;;;;34.60;16.83;;;;;;;;;;6257714;22;20105;-80
2024/01/11 01:59:25;;;;;;;36.22;17.88;;;;;;;;;;6258574;22;20101;-80
2024/01/11 02:01:51;;;;;;;32.65;16.98;;;;;;;;;;6258167;22;20389;-80
2024/01/11 02:04:17;;;;;;;35.20;17.52;;;;;;;;;;6258588;22;20022;-80
2024/01/11 02:06:45;;;;;;;35.13;17.60;;;;;;;;;;6257150;22;20015;-79
2024/01/11 02:09:13;;;;;;;32.25;16.58;;;;;;;;;;6256651;22;20412;-80
2024/01/11 02:11:39;;;;;;;33.25;16.77;;;;;;;;;;6257797;22;20109;-79
2024/01/11 02:14:05;;;;;;;32.50;16.60;;;;;;;;;;6257827;22;20007;-79
2024/01/11 02:16:31;;;;;;;33.97;16.83;;;;;;;;;;6257586;22;20015;-79
2024/01/11 02:18:57;;;;;;;32.35;16.73;;;;;;;;;;6283483;22;20581;-79
2024/01/11 02:21:24;;;;;;;31.50;17.08;;;;;;;;;;6257797;22;20012;-79
2024/01/11 02:24:06;;;;;;;33.53;17.30;;;;;;;;;;6259111;22;20015;-80
2024/01/11 02:26:33;;;;;;;35.17;17.50;;;;;;;;;;6258812;22;20015;-80
2024/01/11 02:28:59;;;;;;;32.55;17.58;;;;;;;;;;6285122;22;20048;-80
2024/01/11 02:31:25;;;;;;;35.72;17.65;;;;;;;;;;6258592;22;20019;-79
2024/01/11 02:33:52;;;;;;;31.95;16.85;;;;;;;;;;6259393;22;20058;-80
2024/01/11 02:36:19;;;;;;;33.97;17.33;;;;;;;;;;6259109;22;20368;-79
2024/01/11 02:38:45;;;;;;;30.00;16.63;;;;;;;;;;6258926;22;20026;-79
2024/01/11 02:41:12;;;;;;;32.95;16.83;;;;;;;;;;6284561;22;20015;-79
2024/01/11 02:43:39;;;;;;;34.30;16.75;;;;;;;;;;6259249;22;20019;-80
2024/01/11 02:46:05;;;;;;;30.52;16.17;;;;;;;;;;6258998;22;20023;-80
2024/01/11 02:48:31;;;;;;;33.63;16.75;;;;;;;;;;6258774;22;20043;-80
2024/01/11 02:50:58;;;;;;;35.95;16.92;;;;;;;;;;6258936;22;20456;-80
2024/01/11 02:53:24;;;;;;;32.35;15.93;;;;;;;;;;6257841;22;20081;-80
2024/01/11 02:55:51;;;;;;;33.88;16.85;;;;;;;;;;6259411;22;20481;-80
2024/01/11 02:58:17;;;;;;;31.15;16.27;;;;;;;;;;6258378;22;20077;-80
2024/01/11 03:00:43;;;;;;;31.58;17.10;;;;;;;;;;6283323;22;20090;-80
2024/01/11 03:03:09;;;;;;;31.38;15.70;;;;;;;;;;6259650;22;20444;-80
2024/01/11 03:05:35;;;;;;;29.98;16.08;;;;;;;;;;6285211;22;20022;-80
2024/01/11 03:08:01;;;;;;;32.25;15.98;;;;;;;;;;6259669;22;20022;-80
2024/01/11 03:10:27;;;;;;;33.30;16.55;;;;;;;;;;6283123;22;20040;-80
2024/01/11 03:12:54;;;;;;;32.08;16.35;;;;;;;;;;6283157;22;20396;-80
2024/01/11 03:15:23;;;;;;;37.22;17.52;;;;;;;;;;6257921;22;20021;-80
2024/01/11 03:17:49;;;;;;;31.60;16.00;;;;;;;;;;6283619;22;20102;-80
2024/01/11 03:20:15;;;;;;;34.10;17.17;;;;;;;;;;6284568;22;20124;-80
2024/01/11 03:22:48;;;;;;;35.28;15.57;;;;;;;;;;6258453;22;20429;-80
2024/01/11 03:25:14;;;;;;;36.42;17.77;;;;;;;;;;6283382;22;20077;-80
2024/01/11 03:27:40;;;;;;;32.55;15.63;;;;;;;;;;6284436;22;20022;-80
2024/01/11 03:30:06;;;;;;;34.78;16.58;;;;;;;;;;6258432;22;20011;-80
2024/01/11 03:32:32;;;;;;;33.17;16.98;;;;;;;;;;6258228;22;20015;-80
2024/01/11 03:34:58;;;;;;;33.30;17.05;;;;;;;;;;6285408;22;20023;-80
2024/01/11 03:37:25;;;;;;;35.78;18.80;;;;;;;;;;6285111;22;20026;-80
2024/01/11 03:39:54;;;;;;;32.88;16.48;;;;;;;;;;6257300;22;20104;-80
2024/01/11 03:42:20;;;;;;;34.30;16.60;;;;;;;;;;6258968;22;20011;-80
2024/01/11 03:44:46;;;;;;;31.30;17.17;;;;;;;;;;6258243;22;20011;-80
2024/01/11 03:47:12;;;;;;;33.42;17.05;;;;;;;;;;6258915;22;20018;-80
2024/01/11 03:49:38;;;;;;;31.50;16.30;;;;;;;;;;6258522;22;20019;-80
2024/01/11 03:52:04;;;;;;;31.92;16.42;;;;;;;;;;6258478;22;20019;-80
2024/01/11 03:54:30;;;;;;;31.58;16.55;;;;;;;;;;6282319;22;20027;-80
2024/01/11 03:56:57;;;;;;;32.63;16.48;;;;;;;;;;6257860;22;20025;-80
2024/01/11 03:59:23;;;;;;;36.15;18.10;;;;;;;;;;6283710;22;20015;-80
2024/01/11 04:01:49;;;;;;;34.65;17.17;;;;;;;;;;6283502;22;20015;-80
2024/01/11 04:04:15;;;;;;;38.47;16.70;;;;;;;;;;6256369;22;20015;-80
2024/01/11 04:06:41;;;;;;;36.83;18.80;;;;;;;;;;6258040;22;20091;-80
2024/01/11 04:09:07;;;;;;;34.92;17.52;;;;;;;;;;6257216;22;20509;-80
2024/01/11 04:11:33;;;;;;;36.70;17.75;;;;;;;;;;6282906;22;20050;-80
2024/01/11 04:13:59;;;;;;;33.40;17.15;;;;;;;;;;6283132;22;20466;-80
2024/01/11 04:16:25;;;;;;;36.85;18.25;;;;;;;;;;6256570;22;20456;-80
2024/01/11 04:18:51;;;;;;;36.72;18.23;;;;;;;;;;6282437;22;20076;-80
2024/01/11 04:21:24;;;;;;;38.50;20.23;;;;;;;;;;6257668;22;20011;-80
2024/01/11 04:23:50;;;;;;;39.47;19.10;;;;;;;;;;6256951;22;20325;-80
2024/01/11 04:26:17;;;;;;;39.85;19.65;;;;;;;;;;6256805;22;20026;-80
2024/01/11 04:28:44;;;;;;;39.85;20.70;;;;;;;;;;6310923;22;20015;-80
2024/01/11 04:31:10;;;;;;;41.15;18.40;;;;;;;;;;6311799;22;20023;-80
2024/01/11 04:33:36;;;;;;;40.58;19.00;;;;;;;;;;6260148;22;20348;-80
2024/01/11 04:36:02;;;;;;;36.50;18.33;;;;;;;;;;6259173;22;20077;-80
2024/01/11 04:38:28;;;;;;;37.33;19.25;;;;;;;;;;6259050;22;20118;-80
2024/01/11 04:40:54;;;;;;;38.38;18.17;;;;;;;;;;6258303;22;20412;-80
2024/01/11 04:43:20;;;;;;;34.88;17.02;;;;;;;;;;6258984;22;20340;-80
2024/01/11 04:45:46;;;;;;;37.22;17.77;;;;;;;;;;6259076;22;20049;-80
2024/01/11 04:48:12;;;;;;;33.05;16.63;;;;;;;;;;6285609;22;20047;-80
2024/01/11 04:50:38;;;;;;;35.45;18.48;;;;;;;;;;6258944;22;20068;-80
2024/01/11 04:53:04;;;;;;;36.55;18.70;;;;;;;;;;6258542;22;20047;-80
2024/01/11 04:55:30;;;;;;;33.92;18.10;;;;;;;;;;6258860;22;20356;-80
2024/01/11 04:57:56;;;;;;;38.28;19.15;;;;;;;;;;6284446;22;20508;-80
2024/01/11 05:00:23;;;;;;;36.92;18.17;;;;;;;;;;6283454;22;20012;-80
2024/01/11 05:02:49;;;;;;;37.38;18.80;;;;;;;;;;6259014;22;20015;-80
2024/01/11 05:05:15;;;;;;;36.17;18.55;;;;;;;;;;6260746;22;20084;-80
2024/01/11 05:07:41;;;;;;;38.08;19.35;;;;;;;;;;6259508;22;20015;-80
2024/01/11 05:10:08;;;;;;;34.75;17.33;;;;;;;;;;6312532;22;20019;-80
2024/01/11 05:12:34;;;;;;;38.40;18.63;;;;;;;;;;6311426;22;20478;-80
2024/01/11 05:15:00;;;;;;;34.92;17.10;;;;;;;;;;6259112;22;20019;-80
2024/01/11 05:17:27;;;;;;;37.03;18.38;;;;;;;;;;6285125;22;20090;-80
2024/01/11 05:19:53;;;;;;;35.72;18.15;;;;;;;;;;6284381;22;20023;-80
2024/01/11 05:22:19;;;;;;;36.10;19.60;;;;;;;;;;6265167;22;20026;-80
2024/01/11 05:24:45;;;;;;;37.25;18.38;;;;;;;;;;6275809;22;20019;-80
2024/01/11 05:27:11;;;;;;;35.65;18.90;;;;;;;;;;6276776;22;20016;-80
2024/01/11 05:29:37;;;;;;;35.83;20.23;;;;;;;;;;6270416;22;20030;-80
2024/01/11 05:32:03;;;;;;;39.10;19.70;;;;;;;;;;6262242;22;20084;-80
2024/01/11 05:34:30;;;;;;;32.75;17.85;;;;;;;;;;6261861;22;20094;-81
2024/01/11 05:36:56;;;;;;;37.35;18.63;;;;;;;;;;6263722;22;20325;-80
2024/01/11 05:39:22;;;;;;;36.55;18.77;;;;;;;;;;6262062;22;20022;-80
2024/01/11 05:41:48;;;;;;;36.20;18.05;;;;;;;;;;6287427;22;20027;-81
2024/01/11 05:44:14;;;;;;;37.28;18.42;;;;;;;;;;6262445;22;20011;-80
2024/01/11 05:46:40;;;;;;;38.78;18.60;;;;;;;;;;6261442;22;20036;-81
2024/01/11 05:49:07;;;;;;;37.17;19.25;;;;;;;;;;6288120;22;20467;-81
2024/01/11 05:51:33;;;;;;;36.05;18.60;;;;;;;;;;6262466;22;20026;-80
2024/01/11 05:53:59;;;;;;;34.60;17.60;;;;;;;;;;6259797;22;20091;-81
2024/01/11 05:56:25;;;;;;;36.95;18.98;;;;;;;;;;6254860;22;20097;-81
2024/01/11 05:58:51;;;;;;;40.42;20.48;;;;;;;;;;6254323;22;20019;-80
2024/01/11 06:01:17;;;;;;;37.15;19.48;;;;;;;;;;6254050;22;20019;-81
2024/01/11 06:03:43;;;;;;;34.65;18.20;;;;;;;;;;6255971;22;20152;-81
2024/01/11 06:06:09;;;;;;;37.08;19.50;;;;;;;;;;6260548;22;20022;-80
2024/01/11 06:08:36;;;;;;;34.03;18.20;;;;;;;;;;6261741;22;20015;-80
2024/01/11 06:11:03;;;;;;;37.10;18.98;;;;;;;;;;6260871;22;20020;-81
2024/01/11 06:13:30;;;;;;;37.22;18.65;;;;;;;;;;6261720;22;20031;-81
2024/01/11 06:15:56;;;;;;;35.95;18.50;;;;;;;;;;6261854;22;20017;-81
2024/01/11 06:18:22;;;;;;;38.42;19.58;;;;;;;;;;6256921;22;20022;-81
2024/01/11 06:20:48;;;;;;;34.67;18.00;;;;;;;;;;6255173;22;20027;-81
2024/01/11 06:23:14;;;;;;;33.15;18.40;;;;;;;;;;6255350;22;20094;-80
2024/01/11 06:25:41;;;;;;;39.35;20.75;;;;;;;;;;6256086;22;20019;-80
2024/01/11 06:28:09;;;;;;;40.33;19.92;;;;;;;;;;6255030;22;20528;-81
2024/01/11 06:30:36;;;;;;;36.83;18.75;;;;;;;;;;6255293;22;20015;-80
2024/01/11 06:33:02;;;;;;;36.35;19.58;;;;;;;;;;6280855;22;20309;-81
2024/01/11 06:35:28;;;;;;;38.13;19.98;;;;;;;;;;6256872;22;20034;-81
2024/01/11 06:37:54;;;;;;;40.10;19.23;;;;;;;;;;6260637;22;20344;-81
2024/01/11 06:40:20;;;;;;;40.15;20.65;;;;;;;;;;6262313;22;20026;-81
2024/01/11 06:42:46;;;;;;;40.45;21.17;;;;;;;;;;6261186;22;20018;-81
2024/01/11 06:45:12;;;;;;;34.58;19.83;;;;;;;;;;6261254;22;20017;-81
2024/01/11 06:47:38;;;;;;;35.58;19.35;;;;;;;;;;6286525;22;20061;-81
2024/01/11 06:50:05;;;;;;;36.88;19.65;;;;;;;;;;6261826;22;20424;-81
2024/01/11 06:52:31;;;;;;;34.45;18.55;;;;;;;;;;6260351;22;20051;-82
2024/01/11 06:54:57;;;;;;;37.55;19.55;;;;;;;;;;6286783;22;20023;-81
2024/01/11 06:57:24;;;;;;;31.67;18.30;;;;;;;;;;6261626;22;20036;-81
2024/01/11 06:59:50;;;;;;;37.45;18.77;;;;;;;;;;6260919;22;20316;-82
2024/01/11 07:02:16;;;;;;;33.13;17.42;;;;;;;;;;6257463;22;20088;-82
2024/01/11 07:04:46;;;;;;;33.35;19.05;;;;;;;;;;6257347;22;20382;-82
2024/01/11 07:07:12;;;;;;;35.08;18.65;;;;;;;;;;6256809;22;20019;-81
2024/01/11 07:09:38;;;;;;;36.45;19.25;;;;;;;;;;6256926;22;20022;-82
2024/01/11 07:12:04;;;;;;;35.42;18.10;;;;;;;;;;6256513;22;20425;-82
2024/01/11 07:14:33;;;;;;;35.45;21.00;;;;;;;;;;6259146;22;20023;-82
2024/01/11 07:16:59;;;;;;;34.63;19.13;;;;;;;;;;6258360;22;20015;-82
2024/01/11 07:19:25;;;;;;;34.42;18.92;;;;;;;;;;6260476;22;20051;-82
2024/01/11 07:21:51;;;;;;;38.80;20.05;;;;;;;;;;6260370;22;20015;-82
2024/01/11 07:24:18;;;;;;;36.80;19.60;;;;;;;;;;6260139;22;20019;-82
2024/01/11 07:26:44;;;;;;;38.70;19.27;;;;;;;;;;6260374;22;20067;-82
2024/01/11 07:29:10;;;;;;;35.97;19.45;;;;;;;;;;6259153;22;20117;-82
2024/01/11 07:31:37;;;;;;;34.38;18.70;;;;;;;;;;6259948;22;20016;-81
2024/01/11 07:34:03;;;;;;;36.65;20.02;;;;;;;;;;6259994;22;20023;-80
2024/01/11 07:36:29;;;;;;;31.88;17.52;;;;;;;;;;6259677;22;20084;-80
2024/01/11 07:38:55;;;;;;;34.17;16.42;;;;;;;;;;6259764;22;20019;-80
2024/01/11 07:41:24;;;;;;;36.08;19.23;;;;;;;;;;6259091;22;20015;-80
2024/01/11 07:43:50;;;;;;;33.45;17.20;;;;;;;;;;6261297;22;20022;-80
2024/01/11 07:46:16;;;;;;;37.67;20.13;;;;;;;;;;6257803;22;20045;-80
2024/01/11 07:48:42;;;;;;;33.03;18.30;;;;;;;;;;6257970;22;20098;-80
2024/01/11 07:51:12;;;;;;;34.75;19.23;;;;;;;;;;6256519;22;20016;-80
2024/01/11 07:53:38;;;;;;;33.42;18.65;;;;;;;;;;6281905;22;20027;-80
2024/01/11 07:56:07;;;;;;;36.78;17.98;;;;;;;;;;6256642;22;20093;-80
2024/01/11 07:58:33;;;;;;;34.63;17.85;;;;;;;;;;6255895;22;20015;-80
2024/01/11 08:00:59;;;;;;;32.13;17.75;;;;;;;;;;6256377;22;20015;-80
2024/01/11 08:03:25;;;;;;;35.80;17.83;;;;;;;;;;6256125;22;20019;-80
2024/01/11 08:05:51;;;;;;;35.15;18.75;;;;;;;;;;6280997;22;20019;-80
2024/01/11 08:08:17;;;;;;;30.55;17.05;;;;;;;;;;6283573;22;20404;-81
2024/01/11 08:10:43;;;;;;;33.78;18.40;;;;;;;;;;6258348;22;20015;-80
2024/01/11 08:13:10;;;;;;;33.30;18.52;;;;;;;;;;6258415;22;20015;-80
2024/01/11 08:15:37;;;;;;;29.98;16.83;;;;;;;;;;6260123;22;20455;-81
2024/01/11 08:18:04;;;;;;;35.42;18.83;;;;;;;;;;6262231;22;20019;-81
2024/01/11 08:20:30;;;;;;;32.25;17.05;;;;;;;;;;6261514;22;20026;-81
2024/01/11 08:22:57;;;;;;;38.08;18.55;;;;;;;;;;6261671;22;20015;-80
2024/01/11 08:25:23;;;;;;;31.33;17.75;;;;;;;;;;6260892;22;20030;-81
2024/01/11 08:27:49;;;;;;;36.58;18.70;;;;;;;;;;6314712;22;20087;-82
2024/01/11 08:30:15;;;;;;;36.35;19.23;;;;;;;;;;6313987;22;20017;-83
2024/01/11 08:32:44;;;;;;;37.13;20.17;;;;;;;;;;6261140;22;20038;-81
2024/01/11 08:35:11;;;;;;;36.70;19.42;;;;;;;;;;6287132;22;20023;-82
2024/01/11 08:37:38;;;;;;;36.63;20.33;;;;;;;;;;6285950;22;20015;-82
2024/01/11 08:40:04;;;;;;;37.63;19.92;;;;;;;;;;6260614;22;20026;-82
2024/01/11 08:42:31;;;;;;;37.72;19.27;;;;;;;;;;6260698;22;20012;-81
2024/01/11 08:44:57;;;;;;;34.85;18.95;;;;;;;;;;6285978;22;20381;-81
2024/01/11 08:47:23;;;;;;;36.95;21.15;;;;;;;;;;6260914;22;20026;-82
2024/01/11 08:49:50;;;;;;;37.30;19.42;;;;;;;;;;6261134;22;20011;-82
2024/01/11 08:52:16;;;;;;;35.28;19.58;;;;;;;;;;6260391;22;20083;-81
2024/01/11 08:54:42;;;;;;;35.53;19.67;;;;;;;;;;6313930;22;20026;-84
2024/01/11 08:57:08;;;;;;;33.55;18.70;;;;;;;;;;6260233;22;20472;-81
2024/01/11 08:59:34;;;;;;;37.33;18.95;;;;;;;;;;6312489;22;20452;-80
2024/01/11 09:02:03;;;;;;;35.97;19.60;;;;;;;;;;6260222;22;20020;-83
2024/01/11 09:04:29;;;;;;;33.78;17.90;;;;;;;;;;6259777;22;20019;-82
2024/01/11 09:06:56;;;;;;;34.53;18.02;;;;;;;;;;6284882;22;20027;-82
2024/01/11 09:09:25;;;;;;;34.03;17.83;;;;;;;;;;6258918;22;20011;-81
2024/01/11 09:11:51;;;;;;;33.55;18.20;;;;;;;;;;6258412;22;20321;-81
2024/01/11 09:14:17;;;;;;;34.45;18.55;;;;;;;;;;6258587;22;20210;-81
2024/01/11 09:16:45;;;;;;;33.88;17.60;;;;;;;;;;6259328;22;20015;-81
2024/01/11 09:19:12;;;;;;;32.67;17.13;;;;;;;;;;6259236;22;20011;-82
2024/01/11 09:21:38;;;;;;;32.47;17.83;;;;;;;;;;6261476;22;20088;-82
2024/01/11 09:24:07;;;;;;;32.38;17.80;;;;;;;;;;6260742;22;20448;-81
2024/01/11 09:26:33;;;;;;;35.17;18.55;;;;;;;;;;6260981;22;20011;-81
2024/01/11 09:28:59;;;;;;;34.33;18.15;;;;;;;;;;6260547;22;20015;-81
2024/01/11 09:31:28;;;;;;;34.63;18.38;;;;;;;;;;6261932;22;20026;-81
2024/01/11 09:33:57;;;;;;;33.67;17.85;;;;;;;;;;6262349;22;20018;-81
2024/01/11 09:36:31;;;;;;;32.58;16.55;;;;;;;;;;6263911;22;20057;-82
2024/01/11 09:39:00;;;;;;;30.02;17.05;;;;;;;;;;6261757;22;20098;-82
2024/01/11 09:41:27;;;;;;;31.52;17.63;;;;;;;;;;6261911;22;20436;-82
2024/01/11 09:43:54;;;;;;;34.22;17.92;;;;;;;;;;6262142;22;20011;-81
2024/01/11 09:46:24;;;;;;;28.45;16.77;;;;;;;;;;6262885;22;20015;-82
2024/01/11 09:48:54;;;;;;;30.88;16.90;;;;;;;;;;6261638;22;20382;-82
2024/01/11 09:51:45;;;;;;;29.95;16.27;;;;;;;;;;6260383;22;20015;-82
2024/01/11 09:54:15;;;;;;;30.80;17.38;;;;;;;;;;6259675;22;20098;-81
2024/01/11 09:56:42;;;;;;;33.35;19.85;;;;;;;;;;6259211;22;24393;-81
2024/01/11 09:59:11;;;;;;;34.80;19.63;;;;;;;;;;6257178;22;24408;-81
2024/01/11 10:01:42;;;;;;;28.65;16.73;;;;;;;;;;6259668;22;20045;-81
2024/01/11 10:04:12;;;;;;;32.38;17.67;;;;;;;;;;6260505;22;20061;-81
2024/01/11 10:06:41;;;;;;;30.85;16.85;;;;;;;;;;6259713;22;20045;-81
2024/01/11 10:09:16;;;;;;;29.63;17.00;;;;;;;;;;6262328;22;20015;-82
2024/01/11 10:11:43;;;;;;;31.13;16.20;;;;;;;;;;6261606;22;20442;-81
2024/01/11 10:14:31;;;;;;;29.85;16.65;;;;;;;;;;6260909;22;20019;-82
2024/01/11 10:17:01;;;;;;;28.25;15.75;;;;;;;;;;6261427;22;20015;-82
2024/01/11 10:19:30;;;;;;;26.70;15.50;;;;;;;;;;6260766;22;20423;-81
2024/01/11 10:21:58;;;;;;;29.65;15.82;;;;;;;;;;6261339;22;20011;-82
2024/01/11 10:24:44;;;;;;;27.42;16.00;;;;;;;;;;6259331;22;20030;-81
2024/01/11 10:27:13;;;;;;;29.70;16.27;;;;;;;;;;6261524;22;20016;-82
2024/01/11 10:29:40;;;;;;;29.38;15.75;;;;;;;;;;6261029;22;20092;-82
2024/01/11 10:32:11;;;;;;;25.00;16.10;;;;;;;;;;6262462;22;20051;-81
2024/01/11 10:34:39;;;;;;;27.60;14.88;;;;;;;;;;6261898;22;20050;-80
2024/01/11 10:37:06;;;;;;;24.60;14.98;;;;;;;;;;6262682;22;20016;-80
2024/01/11 10:39:34;;;;;;;25.50;15.75;;;;;;;;;;6263333;22;20469;-80
2024/01/11 10:42:07;;;;;;;24.98;14.88;;;;;;;;;;6260126;22;20428;-80
2024/01/11 10:44:34;;;;;;;24.83;14.43;;;;;;;;;;6260770;22;20011;-79
2024/01/11 10:47:02;;;;;;;25.35;13.77;;;;;;;;;;6259295;22;20090;-79
2024/01/11 10:49:33;;;;;;;25.38;14.25;;;;;;;;;;6259282;22;20023;-79
2024/01/11 10:52:06;;;;;;;27.55;14.50;;;;;;;;;;6259703;22;20015;-79
2024/01/11 10:54:34;;;;;;;24.02;13.95;;;;;;;;;;6258976;22;20096;-79
2024/01/11 10:57:01;;;;;;;26.10;13.95;;;;;;;;;;6254592;22;20098;-79
2024/01/11 10:59:27;;;;;;;23.52;14.55;;;;;;;;;;6255365;22;20019;-79
2024/01/11 11:01:55;;;;;;;24.98;14.50;;;;;;;;;;6255279;22;20094;-79
2024/01/11 11:04:22;;;;;;;26.65;15.90;;;;;;;;;;6254909;22;20332;-79
2024/01/11 11:06:52;;;;;;;25.67;14.75;;;;;;;;;;6255931;22;20168;-79
2024/01/11 11:09:18;;;;;;;25.25;14.98;;;;;;;;;;6255692;22;20487;-79
2024/01/11 11:11:46;;;;;;;24.73;15.27;;;;;;;;;;6255953;22;20011;-80
2024/01/11 11:14:15;;;;;;;24.90;13.55;;;;;;;;;;6307877;22;20022;-79
2024/01/11 11:16:41;;;;;;;24.92;12.70;;;;;;;;;;6279775;22;20351;-79
2024/01/11 11:19:07;;;;;;;20.20;10.77;;;;;;;;;;6308527;22;20015;-78
2024/01/11 11:21:33;;;;;;;21.90;10.13;;;;;;;;;;6306816;22;20016;-78
2024/01/11 11:23:59;;;;;;;22.98;10.93;;;;;;;;;;6308940;22;20019;-78
2024/01/11 11:26:28;;;;;;;21.13;10.48;;;;;;;;;;6279565;22;20073;-78
2024/01/11 11:28:54;;;;;;;20.42;8.00;;;;;;;;;;6307209;22;20015;-78
2024/01/11 11:31:36;;;;;;;21.90;8.38;;;;;;;;;;6307221;22;20019;-79
2024/01/11 11:34:03;;;;;;;28.88;13.68;;;;;;;;;;6307229;22;20011;-78
2024/01/11 11:36:30;;;;;;;37.60;16.25;;;;;;;;;;6306575;22;20023;-78
2024/01/11 11:39:00;;;;;;;23.40;13.20;;;;;;;;;;6307063;22;20064;-78
2024/01/11 11:41:26;;;;;;;24.17;12.02;;;;;;;;;;6306438;22;20023;-78
2024/01/11 11:43:52;;;;;;;19.70;10.10;;;;;;;;;;6306941;22;20016;-80
2024/01/11 11:46:19;;;;;;;19.65;9.10;;;;;;;;;;6279978;22;20046;-79
2024/01/11 11:48:49;;;;;;;13.55;6.40;;;;;;;;;;6307164;22;20015;-79
2024/01/11 11:51:16;;;;;;;22.77;4.38;;;;;;;;;;6307994;22;20452;-79
2024/01/11 11:53:43;;;;;;;18.20;4.53;;;;;;;;;;6279485;22;20015;-79
2024/01/11 11:56:10;;;;;;;21.98;5.07;;;;;;;;;;6307326;22;20460;-79
2024/01/11 11:58:36;;;;;;;25.75;5.30;;;;;;;;;;6280243;22;20486;-79
2024/01/11 12:01:03;;;;;;;16.98;4.38;;;;;;;;;;6308416;22;20023;-79
2024/01/11 12:03:32;;;;;;;24.58;5.55;;;;;;;;;;6307609;22;20391;-79
2024/01/11 12:05:59;;;;;;;20.20;5.03;;;;;;;;;;6308707;22;20084;-79
2024/01/11 12:08:25;;;;;;;23.83;4.70;;;;;;;;;;6280804;22;20078;-79
2024/01/11 12:10:52;;;;;;;16.67;4.13;;;;;;;;;;6308734;22;20418;-79
2024/01/11 12:13:18;;;;;;;20.80;4.70;;;;;;;;;;6308213;22;20471;-79
2024/01/11 12:15:44;;;;;;;18.98;4.38;;;;;;;;;;6307421;22;20012;-79
2024/01/11 12:18:11;;;;;;;15.25;4.25;;;;;;;;;;6308223;22;20034;-79
2024/01/11 12:20:37;;;;;;;17.17;4.07;;;;;;;;;;6307923;22;20027;-79
2024/01/11 12:23:03;;;;;;;15.32;3.75;;;;;;;;;;6279375;22;20072;-79
2024/01/11 12:25:29;;;;;;;20.65;4.63;;;;;;;;;;6279461;22;20019;-79
2024/01/11 12:27:55;;;;;;;19.27;4.68;;;;;;;;;;6306751;22;20494;-79
2024/01/11 12:30:25;;;;;;;25.67;5.07;;;;;;;;;;6279042;22;20060;-79
2024/01/11 12:32:51;;;;;;;21.90;4.40;;;;;;;;;;6279023;22;20026;-79
2024/01/11 12:35:17;;;;;;;22.75;4.95;;;;;;;;;;6279033;22;20019;-79
2024/01/11 12:37:53;;;;;;;24.98;4.72;;;;;;;;;;6278747;22;20026;-79
2024/01/11 12:40:19;;;;;;;21.85;4.25;;;;;;;;;;6306343;22;20395;-79
2024/01/11 12:42:45;;;;;;;25.25;5.00;;;;;;;;;;6306485;22;20015;-79
2024/01/11 12:45:11;;;;;;;22.90;4.80;;;;;;;;;;6306287;22;20355;-79
2024/01/11 12:47:38;;;;;;;22.17;4.40;;;;;;;;;;6306242;22;20153;-79
2024/01/11 12:50:04;;;;;;;22.88;6.68;;;;;;;;;;6306011;22;20015;-79
2024/01/11 12:52:30;;;;;;;24.60;4.63;;;;;;;;;;6306717;22;20015;-78
2024/01/11 12:54:59;;;;;;;22.95;5.80;;;;;;;;;;6308755;22;20086;-79
2024/01/11 12:57:26;;;;;;;24.50;6.18;;;;;;;;;;6308056;22;20049;-79
2024/01/11 12:59:53;;;;;;;22.08;5.53;;;;;;;;;;6308144;22;20436;-79
2024/01/11 13:02:19;;;;;;;21.05;4.93;;;;;;;;;;6308015;22;20027;-79
2024/01/11 13:04:48;;;;;;;23.48;4.38;;;;;;;;;;6280769;22;20090;-79
2024/01/11 13:07:15;;;;;;;22.88;4.57;;;;;;;;;;6308258;22;20022;-79
2024/01/11 13:09:41;;;;;;;17.23;4.15;;;;;;;;;;6308176;22;20015;-79
2024/01/11 13:12:08;;;;;;;18.67;4.97;;;;;;;;;;6280678;22;20023;-79
2024/01/11 13:14:34;;;;;;;24.50;5.32;;;;;;;;;;6308733;22;20085;-79
2024/01/11 13:17:00;;;;;;;20.17;4.20;;;;;;;;;;6308205;22;20034;-79
2024/01/11 13:19:26;;;;;;;18.98;4.45;;;;;;;;;;6308703;22;20026;-79
2024/01/11 13:21:53;;;;;;;26.08;5.05;;;;;;;;;;6308312;22;20023;-79
2024/01/11 13:24:19;;;;;;;22.48;5.88;;;;;;;;;;6282139;22;20027;-79
2024/01/11 13:26:45;;;;;;;22.70;5.43;;;;;;;;;;6281656;22;20026;-79
2024/01/11 13:29:11;;;;;;;16.85;4.55;;;;;;;;;;6308370;22;20018;-79
2024/01/11 13:31:37;;;;;;;24.02;5.05;;;;;;;;;;6281232;22;20016;-79
2024/01/11 13:34:03;;;;;;;30.30;4.85;;;;;;;;;;6309465;22;20081;-79
2024/01/11 13:36:29;;;;;;;22.23;4.90;;;;;;;;;;6310076;22;20119;-79
2024/01/11 13:38:55;;;;;;;24.58;5.40;;;;;;;;;;6313030;22;20082;-81
2024/01/11 13:41:22;;;;;;;33.20;5.20;;;;;;;;;;6283830;22;20019;-79
2024/01/11 13:43:48;;;;;;;18.88;4.38;;;;;;;;;;6256108;22;20023;-79
2024/01/11 13:46:16;;;;;;;;;;;;;;;;;;6308827;22;20030;-79
2024/01/11 13:48:42;;;;;;;26.13;5.72;;;;;;;;;;6308464;22;19941;-79
2024/01/11 13:51:12;;;;;;;20.67;4.28;;;;;;;;;;6310355;22;20038;-79
2024/01/11 13:53:38;;;;;;;26.38;4.63;;;;;;;;;;6310360;22;20473;-79
2024/01/11 13:56:05;;;;;;;22.25;4.90;;;;;;;;;;6309686;22;20124;-79
2024/01/11 13:58:31;;;;;;;18.92;4.93;;;;;;;;;;6256317;22;20069;-79
2024/01/11 14:00:58;;;;;;;23.70;4.80;;;;;;;;;;6310511;22;20019;-80
2024/01/11 14:03:24;;;;;;;23.42;5.35;;;;;;;;;;6256215;22;20026;-79
2024/01/11 14:05:50;;;;;;;17.50;4.38;;;;;;;;;;6281714;22;20458;-79
2024/01/11 14:08:16;;;;;;;26.48;5.70;;;;;;;;;;6308849;22;20015;-79
2024/01/11 14:10:42;;;;;;;17.00;4.70;;;;;;;;;;6308719;22;20046;-79
2024/01/11 14:13:09;;;;;;;21.17;4.32;;;;;;;;;;6309128;22;20024;-79
2024/01/11 14:15:35;;;;;;;23.10;4.57;;;;;;;;;;6281550;22;20020;-79
2024/01/11 14:18:01;;;;;;;22.42;4.30;;;;;;;;;;6311654;22;20019;-80